Badgingarra, Australia
Current Conditions -  °F | °C
As of 4:00 AM on Monday 24 Nov 2014 (Local Time) from YPEA Reporting Station
Clear Clear  
Wind Chill: 54°   Ceiling: Unl
Heat Index: 54°   Visibility: 6mi
Dew Point: 41°   Wind: 9mph
Humidity: 62%   Direction: 170°S
Pressure: 30.12"   Gusts: NA
Location:  30.4°S, 115.54°E
Report Text: YPEA 232000Z AUTO 17008KT 9999 // NCD 12/05 Q1020
Loading
Personal Weather Stations






























Interactive Weather Map New forecast layout! Learn more

10-Day Weather Forecast

Advertisements
Track Severe Weather on mobile